sensor_id;sensor_type;location;lat;lon;timestamp;P1;durP1;ratioP1;P2;durP2;ratioP2
51475;SDS011;37554;50.362;7.568;2022-12-29T00:01:54;2.05;;;0.65;;
51475;SDS011;37554;50.362;7.568;2022-12-29T00:04:20;0.98;;;0.70;;
51475;SDS011;37554;50.362;7.568;2022-12-29T00:06:46;1.35;;;0.40;;
51475;SDS011;37554;50.362;7.568;2022-12-29T00:09:13;1.08;;;0.32;;
51475;SDS011;37554;50.362;7.568;2022-12-29T00:11:41;1.42;;;0.60;;
51475;SDS011;37554;50.362;7.568;2022-12-29T00:14:10;1.70;;;0.50;;
51475;SDS011;37554;50.362;7.568;2022-12-29T00:16:55;0.73;;;0.50;;
51475;SDS011;37554;50.362;7.568;2022-12-29T00:19:21;0.95;;;0.60;;
51475;SDS011;37554;50.362;7.568;2022-12-29T00:22:06;1.48;;;0.40;;
51475;SDS011;37554;50.362;7.568;2022-12-29T00:24:56;0.70;;;0.50;;
51475;SDS011;37554;50.362;7.568;2022-12-29T00:27:34;0.82;;;0.43;;
51475;SDS011;37554;50.362;7.568;2022-12-29T00:30:19;0.73;;;0.50;;
51475;SDS011;37554;50.362;7.568;2022-12-29T00:33:13;1.00;;;0.45;;
51475;SDS011;37554;50.362;7.568;2022-12-29T00:38:49;2.15;;;0.60;;
51475;SDS011;37554;50.362;7.568;2022-12-29T00:41:46;0.68;;;0.40;;
51475;SDS011;37554;50.362;7.568;2022-12-29T00:44:31;0.77;;;0.30;;
51475;SDS011;37554;50.362;7.568;2022-12-29T00:46:57;1.45;;;0.50;;
51475;SDS011;37554;50.362;7.568;2022-12-29T00:49:27;0.77;;;0.40;;
51475;SDS011;37554;50.362;7.568;2022-12-29T00:52:05;0.57;;;0.40;;
51475;SDS011;37554;50.362;7.568;2022-12-29T00:54:36;1.10;;;0.30;;
51475;SDS011;37554;50.362;7.568;2022-12-29T00:57:04;0.90;;;0.40;;
51475;SDS011;37554;50.362;7.568;2022-12-29T00:59:31;1.67;;;0.40;;
51475;SDS011;37554;50.362;7.568;2022-12-29T01:01:59;0.70;;;0.40;;
51475;SDS011;37554;50.362;7.568;2022-12-29T01:04:25;1.40;;;0.40;;
51475;SDS011;37554;50.362;7.568;2022-12-29T01:06:51;0.50;;;0.40;;
51475;SDS011;37554;50.362;7.568;2022-12-29T01:09:17;0.98;;;0.60;;
51475;SDS011;37554;50.362;7.568;2022-12-29T01:12:02;0.80;;;0.50;;
51475;SDS011;37554;50.362;7.568;2022-12-29T01:14:29;1.02;;;0.47;;
51475;SDS011;37554;50.362;7.568;2022-12-29T01:16:55;0.20;;;0.20;;
51475;SDS011;37554;50.362;7.568;2022-12-29T01:19:21;2.45;;;0.32;;
51475;SDS011;37554;50.362;7.568;2022-12-29T01:21:47;0.70;;;0.45;;
51475;SDS011;37554;50.362;7.568;2022-12-29T01:24:14;0.65;;;0.30;;
51475;SDS011;37554;50.362;7.568;2022-12-29T01:26:40;0.60;;;0.30;;
51475;SDS011;37554;50.362;7.568;2022-12-29T01:29:06;0.70;;;0.40;;
51475;SDS011;37554;50.362;7.568;2022-12-29T01:31:32;0.73;;;0.30;;
51475;SDS011;37554;50.362;7.568;2022-12-29T01:33:58;0.22;;;0.20;;
51475;SDS011;37554;50.362;7.568;2022-12-29T01:36:24;1.25;;;0.30;;
51475;SDS011;37554;50.362;7.568;2022-12-29T01:38:50;0.40;;;0.30;;
51475;SDS011;37554;50.362;7.568;2022-12-29T01:41:16;0.20;;;0.20;;
51475;SDS011;37554;50.362;7.568;2022-12-29T01:51:45;1.15;;;0.50;;
51475;SDS011;37554;50.362;7.568;2022-12-29T01:56:50;0.30;;;0.25;;
51475;SDS011;37554;50.362;7.568;2022-12-29T01:59:18;0.30;;;0.30;;
51475;SDS011;37554;50.362;7.568;2022-12-29T02:01:47;0.57;;;0.22;;
51475;SDS011;37554;50.362;7.568;2022-12-29T02:04:14;0.30;;;0.28;;
51475;SDS011;37554;50.362;7.568;2022-12-29T02:07:14;0.63;;;0.30;;
51475;SDS011;37554;50.362;7.568;2022-12-29T02:09:39;0.75;;;0.30;;
51475;SDS011;37554;50.362;7.568;2022-12-29T02:12:06;0.57;;;0.25;;
51475;SDS011;37554;50.362;7.568;2022-12-29T02:14:32;0.40;;;0.25;;
51475;SDS011;37554;50.362;7.568;2022-12-29T02:17:06;0.98;;;0.30;;
51475;SDS011;37554;50.362;7.568;2022-12-29T02:20:01;0.45;;;0.30;;
51475;SDS011;37554;50.362;7.568;2022-12-29T02:28:27;0.20;;;0.20;;
51475;SDS011;37554;50.362;7.568;2022-12-29T02:37:00;0.60;;;0.32;;
51475;SDS011;37554;50.362;7.568;2022-12-29T02:43:10;0.40;;;0.20;;
51475;SDS011;37554;50.362;7.568;2022-12-29T02:46:00;0.25;;;0.22;;
51475;SDS011;37554;50.362;7.568;2022-12-29T02:48:57;1.00;;;0.30;;
51475;SDS011;37554;50.362;7.568;2022-12-29T02:51:39;0.38;;;0.20;;
51475;SDS011;37554;50.362;7.568;2022-12-29T02:54:41;0.20;;;0.20;;
51475;SDS011;37554;50.362;7.568;2022-12-29T02:59:48;0.30;;;0.25;;
51475;SDS011;37554;50.362;7.568;2022-12-29T03:02:28;0.50;;;0.22;;
51475;SDS011;37554;50.362;7.568;2022-12-29T03:11:13;0.43;;;0.30;;
51475;SDS011;37554;50.362;7.568;2022-12-29T03:14:02;0.57;;;0.20;;
51475;SDS011;37554;50.362;7.568;2022-12-29T03:19:26;0.20;;;0.20;;
51475;SDS011;37554;50.362;7.568;2022-12-29T03:22:06;0.45;;;0.20;;
51475;SDS011;37554;50.362;7.568;2022-12-29T03:27:38;0.30;;;0.20;;
51475;SDS011;37554;50.362;7.568;2022-12-29T03:30:16;0.70;;;0.20;;
51475;SDS011;37554;50.362;7.568;2022-12-29T03:32:47;0.40;;;0.20;;
51475;SDS011;37554;50.362;7.568;2022-12-29T03:35:17;0.20;;;0.20;;
51475;SDS011;37554;50.362;7.568;2022-12-29T03:37:52;0.28;;;0.20;;
51475;SDS011;37554;50.362;7.568;2022-12-29T03:40:29;0.30;;;0.17;;
51475;SDS011;37554;50.362;7.568;2022-12-29T03:42:57;0.25;;;0.20;;
51475;SDS011;37554;50.362;7.568;2022-12-29T03:45:23;0.40;;;0.22;;
51475;SDS011;37554;50.362;7.568;2022-12-29T03:47:50;0.68;;;0.20;;
51475;SDS011;37554;50.362;7.568;2022-12-29T03:50:17;0.43;;;0.30;;
51475;SDS011;37554;50.362;7.568;2022-12-29T03:52:42;0.20;;;0.20;;
51475;SDS011;37554;50.362;7.568;2022-12-29T03:55:08;0.22;;;0.20;;
51475;SDS011;37554;50.362;7.568;2022-12-29T03:57:34;0.45;;;0.30;;
51475;SDS011;37554;50.362;7.568;2022-12-29T04:00:00;0.47;;;0.40;;
51475;SDS011;37554;50.362;7.568;2022-12-29T04:02:26;0.55;;;0.43;;
51475;SDS011;37554;50.362;7.568;2022-12-29T04:04:51;0.80;;;0.40;;
51475;SDS011;37554;50.362;7.568;2022-12-29T04:07:17;0.40;;;0.30;;
51475;SDS011;37554;50.362;7.568;2022-12-29T04:09:42;0.60;;;0.30;;
51475;SDS011;37554;50.362;7.568;2022-12-29T04:12:08;1.55;;;0.50;;
51475;SDS011;37554;50.362;7.568;2022-12-29T04:14:34;1.63;;;0.40;;
51475;SDS011;37554;50.362;7.568;2022-12-29T04:16:59;1.35;;;0.40;;
51475;SDS011;37554;50.362;7.568;2022-12-29T04:19:25;0.40;;;0.40;;
51475;SDS011;37554;50.362;7.568;2022-12-29T04:21:50;1.00;;;0.50;;
51475;SDS011;37554;50.362;7.568;2022-12-29T04:24:16;2.40;;;0.40;;
51475;SDS011;37554;50.362;7.568;2022-12-29T04:26:42;1.00;;;0.50;;
51475;SDS011;37554;50.362;7.568;2022-12-29T04:29:07;1.10;;;0.40;;
51475;SDS011;37554;50.362;7.568;2022-12-29T04:31:33;0.82;;;0.47;;
51475;SDS011;37554;50.362;7.568;2022-12-29T04:33:59;0.65;;;0.40;;
51475;SDS011;37554;50.362;7.568;2022-12-29T04:36:25;0.85;;;0.50;;
51475;SDS011;37554;50.362;7.568;2022-12-29T04:38:51;1.08;;;0.45;;
51475;SDS011;37554;50.362;7.568;2022-12-29T04:41:16;0.98;;;0.50;;
51475;SDS011;37554;50.362;7.568;2022-12-29T04:43:42;1.00;;;0.50;;
51475;SDS011;37554;50.362;7.568;2022-12-29T04:46:08;0.75;;;0.38;;
51475;SDS011;37554;50.362;7.568;2022-12-29T04:48:33;0.82;;;0.40;;
51475;SDS011;37554;50.362;7.568;2022-12-29T04:50:59;1.00;;;0.40;;
51475;SDS011;37554;50.362;7.568;2022-12-29T04:53:24;0.88;;;0.40;;
51475;SDS011;37554;50.362;7.568;2022-12-29T04:55:50;1.38;;;0.30;;
51475;SDS011;37554;50.362;7.568;2022-12-29T04:58:17;0.85;;;0.43;;
51475;SDS011;37554;50.362;7.568;2022-12-29T05:00:44;0.68;;;0.50;;
51475;SDS011;37554;50.362;7.568;2022-12-29T05:03:09;0.95;;;0.50;;
51475;SDS011;37554;50.362;7.568;2022-12-29T05:05:35;0.80;;;0.40;;
51475;SDS011;37554;50.362;7.568;2022-12-29T05:08:01;1.10;;;0.40;;
51475;SDS011;37554;50.362;7.568;2022-12-29T05:10:26;1.02;;;0.40;;
51475;SDS011;37554;50.362;7.568;2022-12-29T05:12:52;1.00;;;0.40;;
51475;SDS011;37554;50.362;7.568;2022-12-29T05:15:18;0.70;;;0.40;;
51475;SDS011;37554;50.362;7.568;2022-12-29T05:17:43;0.28;;;0.28;;
51475;SDS011;37554;50.362;7.568;2022-12-29T05:20:09;0.75;;;0.40;;
51475;SDS011;37554;50.362;7.568;2022-12-29T05:22:35;1.05;;;0.30;;
51475;SDS011;37554;50.362;7.568;2022-12-29T05:25:01;5.07;;;0.65;;
51475;SDS011;37554;50.362;7.568;2022-12-29T05:27:27;2.92;;;0.50;;
51475;SDS011;37554;50.362;7.568;2022-12-29T05:29:52;1.15;;;0.40;;
51475;SDS011;37554;50.362;7.568;2022-12-29T05:32:18;0.90;;;0.47;;
51475;SDS011;37554;50.362;7.568;2022-12-29T05:34:44;1.33;;;0.50;;
51475;SDS011;37554;50.362;7.568;2022-12-29T05:37:10;0.70;;;0.30;;
51475;SDS011;37554;50.362;7.568;2022-12-29T05:39:35;1.10;;;0.50;;
51475;SDS011;37554;50.362;7.568;2022-12-29T05:42:01;1.60;;;0.30;;
51475;SDS011;37554;50.362;7.568;2022-12-29T05:44:27;1.00;;;0.40;;
51475;SDS011;37554;50.362;7.568;2022-12-29T05:46:52;0.57;;;0.35;;
51475;SDS011;37554;50.362;7.568;2022-12-29T05:49:18;0.98;;;0.35;;
51475;SDS011;37554;50.362;7.568;2022-12-29T05:51:44;1.17;;;0.50;;
51475;SDS011;37554;50.362;7.568;2022-12-29T05:54:09;1.40;;;0.40;;
51475;SDS011;37554;50.362;7.568;2022-12-29T05:56:35;0.57;;;0.30;;
51475;SDS011;37554;50.362;7.568;2022-12-29T05:59:01;1.45;;;0.60;;
51475;SDS011;37554;50.362;7.568;2022-12-29T06:01:26;0.52;;;0.40;;
51475;SDS011;37554;50.362;7.568;2022-12-29T06:03:52;1.60;;;0.40;;
51475;SDS011;37554;50.362;7.568;2022-12-29T06:06:18;0.65;;;0.35;;
51475;SDS011;37554;50.362;7.568;2022-12-29T06:08:43;1.02;;;0.40;;
51475;SDS011;37554;50.362;7.568;2022-12-29T06:11:09;0.63;;;0.40;;
51475;SDS011;37554;50.362;7.568;2022-12-29T06:13:35;1.33;;;0.40;;
51475;SDS011;37554;50.362;7.568;2022-12-29T06:16:01;1.40;;;0.40;;
51475;SDS011;37554;50.362;7.568;2022-12-29T06:18:27;0.75;;;0.30;;
51475;SDS011;37554;50.362;7.568;2022-12-29T06:20:52;1.15;;;0.47;;
51475;SDS011;37554;50.362;7.568;2022-12-29T06:23:18;0.70;;;0.30;;
51475;SDS011;37554;50.362;7.568;2022-12-29T06:25:44;0.75;;;0.35;;
51475;SDS011;37554;50.362;7.568;2022-12-29T06:28:11;1.05;;;0.40;;
51475;SDS011;37554;50.362;7.568;2022-12-29T06:30:38;1.80;;;0.73;;
51475;SDS011;37554;50.362;7.568;2022-12-29T06:33:03;0.45;;;0.30;;
51475;SDS011;37554;50.362;7.568;2022-12-29T06:35:29;1.02;;;0.35;;
51475;SDS011;37554;50.362;7.568;2022-12-29T06:37:55;0.70;;;0.40;;
51475;SDS011;37554;50.362;7.568;2022-12-29T06:40:20;1.02;;;0.32;;
51475;SDS011;37554;50.362;7.568;2022-12-29T06:42:46;1.23;;;0.30;;
51475;SDS011;37554;50.362;7.568;2022-12-29T06:45:12;0.85;;;0.20;;
51475;SDS011;37554;50.362;7.568;2022-12-29T06:47:37;0.90;;;0.40;;
51475;SDS011;37554;50.362;7.568;2022-12-29T06:50:03;1.70;;;0.30;;
51475;SDS011;37554;50.362;7.568;2022-12-29T06:52:29;0.32;;;0.30;;
51475;SDS011;37554;50.362;7.568;2022-12-29T06:54:55;1.48;;;0.20;;
51475;SDS011;37554;50.362;7.568;2022-12-29T06:57:21;2.13;;;0.35;;
51475;SDS011;37554;50.362;7.568;2022-12-29T06:59:46;0.82;;;0.38;;
51475;SDS011;37554;50.362;7.568;2022-12-29T07:02:13;1.15;;;0.30;;
51475;SDS011;37554;50.362;7.568;2022-12-29T07:04:44;0.70;;;0.32;;
51475;SDS011;37554;50.362;7.568;2022-12-29T07:07:33;0.63;;;0.30;;
51475;SDS011;37554;50.362;7.568;2022-12-29T07:10:08;0.45;;;0.40;;
51475;SDS011;37554;50.362;7.568;2022-12-29T07:12:33;0.93;;;0.30;;
51475;SDS011;37554;50.362;7.568;2022-12-29T07:15:03;1.27;;;0.40;;
51475;SDS011;37554;50.362;7.568;2022-12-29T07:18:01;1.13;;;0.30;;
51475;SDS011;37554;50.362;7.568;2022-12-29T07:20:28;0.75;;;0.40;;
51475;SDS011;37554;50.362;7.568;2022-12-29T07:22:57;1.35;;;0.30;;
51475;SDS011;37554;50.362;7.568;2022-12-29T07:25:32;5.22;;;0.30;;
51475;SDS011;37554;50.362;7.568;2022-12-29T07:28:15;0.47;;;0.30;;
51475;SDS011;37554;50.362;7.568;2022-12-29T07:30:41;0.43;;;0.30;;
51475;SDS011;37554;50.362;7.568;2022-12-29T07:33:07;0.50;;;0.40;;
51475;SDS011;37554;50.362;7.568;2022-12-29T07:38:32;0.73;;;0.20;;
51475;SDS011;37554;50.362;7.568;2022-12-29T07:41:01;0.90;;;0.40;;
51475;SDS011;37554;50.362;7.568;2022-12-29T07:43:33;1.13;;;0.40;;
51475;SDS011;37554;50.362;7.568;2022-12-29T07:45:59;0.85;;;0.38;;
51475;SDS011;37554;50.362;7.568;2022-12-29T07:48:25;0.77;;;0.32;;
51475;SDS011;37554;50.362;7.568;2022-12-29T07:50:51;1.30;;;0.43;;
51475;SDS011;37554;50.362;7.568;2022-12-29T07:53:18;0.73;;;0.43;;
51475;SDS011;37554;50.362;7.568;2022-12-29T07:55:43;0.65;;;0.45;;
51475;SDS011;37554;50.362;7.568;2022-12-29T07:58:15;1.23;;;0.47;;
51475;SDS011;37554;50.362;7.568;2022-12-29T08:00:46;0.40;;;0.30;;
51475;SDS011;37554;50.362;7.568;2022-12-29T08:03:11;1.33;;;0.40;;
51475;SDS011;37554;50.362;7.568;2022-12-29T08:05:37;1.40;;;0.50;;
51475;SDS011;37554;50.362;7.568;2022-12-29T08:08:04;1.02;;;0.40;;
51475;SDS011;37554;50.362;7.568;2022-12-29T08:10:29;0.60;;;0.30;;
51475;SDS011;37554;50.362;7.568;2022-12-29T08:12:55;1.08;;;0.40;;
51475;SDS011;37554;50.362;7.568;2022-12-29T08:15:23;1.08;;;0.47;;
51475;SDS011;37554;50.362;7.568;2022-12-29T08:17:49;1.13;;;0.43;;
51475;SDS011;37554;50.362;7.568;2022-12-29T08:20:15;0.85;;;0.50;;
51475;SDS011;37554;50.362;7.568;2022-12-29T08:22:40;0.82;;;0.30;;
51475;SDS011;37554;50.362;7.568;2022-12-29T08:25:20;1.40;;;0.40;;
51475;SDS011;37554;50.362;7.568;2022-12-29T08:27:46;0.93;;;0.35;;
51475;SDS011;37554;50.362;7.568;2022-12-29T08:30:12;0.47;;;0.30;;
51475;SDS011;37554;50.362;7.568;2022-12-29T08:32:38;0.75;;;0.30;;
51475;SDS011;37554;50.362;7.568;2022-12-29T08:35:03;0.43;;;0.20;;
51475;SDS011;37554;50.362;7.568;2022-12-29T08:37:29;0.88;;;0.20;;
51475;SDS011;37554;50.362;7.568;2022-12-29T08:39:56;0.57;;;0.22;;
51475;SDS011;37554;50.362;7.568;2022-12-29T08:42:23;0.63;;;0.20;;
51475;SDS011;37554;50.362;7.568;2022-12-29T08:44:54;0.47;;;0.32;;
51475;SDS011;37554;50.362;7.568;2022-12-29T08:47:19;0.90;;;0.32;;
51475;SDS011;37554;50.362;7.568;2022-12-29T08:49:45;0.95;;;0.20;;
51475;SDS011;37554;50.362;7.568;2022-12-29T08:52:10;0.63;;;0.20;;
51475;SDS011;37554;50.362;7.568;2022-12-29T08:54:36;0.63;;;0.30;;
51475;SDS011;37554;50.362;7.568;2022-12-29T08:57:02;0.68;;;0.20;;
51475;SDS011;37554;50.362;7.568;2022-12-29T08:59:27;0.50;;;0.30;;
51475;SDS011;37554;50.362;7.568;2022-12-29T09:01:53;0.82;;;0.30;;
51475;SDS011;37554;50.362;7.568;2022-12-29T09:04:19;0.60;;;0.20;;
51475;SDS011;37554;50.362;7.568;2022-12-29T09:06:44;0.68;;;0.30;;
51475;SDS011;37554;50.362;7.568;2022-12-29T09:09:10;1.63;;;0.30;;
51475;SDS011;37554;50.362;7.568;2022-12-29T09:11:36;0.40;;;0.20;;
51475;SDS011;37554;50.362;7.568;2022-12-29T09:14:02;0.85;;;0.30;;
51475;SDS011;37554;50.362;7.568;2022-12-29T09:16:28;0.40;;;0.20;;
51475;SDS011;37554;50.362;7.568;2022-12-29T09:18:53;0.30;;;0.20;;
51475;SDS011;37554;50.362;7.568;2022-12-29T09:21:19;0.32;;;0.20;;
51475;SDS011;37554;50.362;7.568;2022-12-29T09:23:45;0.93;;;0.32;;
51475;SDS011;37554;50.362;7.568;2022-12-29T09:26:10;2.05;;;0.32;;
51475;SDS011;37554;50.362;7.568;2022-12-29T09:28:36;1.73;;;0.30;;
51475;SDS011;37554;50.362;7.568;2022-12-29T09:31:02;0.47;;;0.25;;
51475;SDS011;37554;50.362;7.568;2022-12-29T09:33:27;0.40;;;0.30;;
51475;SDS011;37554;50.362;7.568;2022-12-29T09:35:54;0.90;;;0.47;;
51475;SDS011;37554;50.362;7.568;2022-12-29T09:38:21;0.70;;;0.20;;
51475;SDS011;37554;50.362;7.568;2022-12-29T09:41:05;0.22;;;0.20;;
51475;SDS011;37554;50.362;7.568;2022-12-29T09:46:47;0.40;;;0.20;;
51475;SDS011;37554;50.362;7.568;2022-12-29T09:52:14;0.85;;;0.30;;
51475;SDS011;37554;50.362;7.568;2022-12-29T09:57:45;1.17;;;0.10;;
51475;SDS011;37554;50.362;7.568;2022-12-29T10:00:20;1.33;;;0.40;;
51475;SDS011;37554;50.362;7.568;2022-12-29T10:03:13;1.00;;;0.38;;
51475;SDS011;37554;50.362;7.568;2022-12-29T10:14:25;0.65;;;0.30;;
51475;SDS011;37554;50.362;7.568;2022-12-29T10:19:44;0.60;;;0.20;;
51475;SDS011;37554;50.362;7.568;2022-12-29T10:22:53;0.57;;;0.20;;
51475;SDS011;37554;50.362;7.568;2022-12-29T10:25:38;1.20;;;0.38;;
51475;SDS011;37554;50.362;7.568;2022-12-29T10:28:52;0.50;;;0.30;;
51475;SDS011;37554;50.362;7.568;2022-12-29T10:31:41;1.08;;;0.38;;
51475;SDS011;37554;50.362;7.568;2022-12-29T10:34:17;2.05;;;0.40;;
51475;SDS011;37554;50.362;7.568;2022-12-29T10:40:27;0.88;;;0.30;;
51475;SDS011;37554;50.362;7.568;2022-12-29T10:42:55;1.60;;;0.60;;
51475;SDS011;37554;50.362;7.568;2022-12-29T10:45:23;1.60;;;0.30;;
51475;SDS011;37554;50.362;7.568;2022-12-29T10:50:25;0.32;;;0.20;;
51475;SDS011;37554;50.362;7.568;2022-12-29T10:52:51;1.48;;;0.30;;
51475;SDS011;37554;50.362;7.568;2022-12-29T10:55:21;1.25;;;0.47;;
51475;SDS011;37554;50.362;7.568;2022-12-29T10:57:50;3.30;;;0.63;;
51475;SDS011;37554;50.362;7.568;2022-12-29T11:00:17;1.23;;;0.65;;
51475;SDS011;37554;50.362;7.568;2022-12-29T11:02:51;1.70;;;0.40;;
51475;SDS011;37554;50.362;7.568;2022-12-29T11:05:40;1.48;;;0.38;;
51475;SDS011;37554;50.362;7.568;2022-12-29T11:08:10;0.93;;;0.70;;
51475;SDS011;37554;50.362;7.568;2022-12-29T11:10:42;1.98;;;0.70;;
51475;SDS011;37554;50.362;7.568;2022-12-29T11:13:16;0.60;;;0.47;;
51475;SDS011;37554;50.362;7.568;2022-12-29T11:18:21;1.40;;;0.68;;
51475;SDS011;37554;50.362;7.568;2022-12-29T11:20:53;0.98;;;0.60;;
51475;SDS011;37554;50.362;7.568;2022-12-29T11:23:21;0.73;;;0.40;;
51475;SDS011;37554;50.362;7.568;2022-12-29T11:28:47;1.52;;;0.50;;
51475;SDS011;37554;50.362;7.568;2022-12-29T11:31:28;1.13;;;0.60;;
51475;SDS011;37554;50.362;7.568;2022-12-29T11:33:54;2.15;;;0.52;;
51475;SDS011;37554;50.362;7.568;2022-12-29T11:36:21;1.48;;;0.80;;
51475;SDS011;37554;50.362;7.568;2022-12-29T11:38:49;1.20;;;0.68;;
51475;SDS011;37554;50.362;7.568;2022-12-29T11:41:24;2.35;;;0.85;;
51475;SDS011;37554;50.362;7.568;2022-12-29T11:43:52;2.05;;;0.60;;
51475;SDS011;37554;50.362;7.568;2022-12-29T11:46:24;1.23;;;0.50;;
51475;SDS011;37554;50.362;7.568;2022-12-29T11:49:02;3.00;;;0.77;;
51475;SDS011;37554;50.362;7.568;2022-12-29T11:51:30;2.03;;;0.90;;
51475;SDS011;37554;50.362;7.568;2022-12-29T11:54:22;2.17;;;0.68;;
51475;SDS011;37554;50.362;7.568;2022-12-29T11:56:48;2.67;;;1.08;;
51475;SDS011;37554;50.362;7.568;2022-12-29T12:01:57;2.03;;;0.80;;
51475;SDS011;37554;50.362;7.568;2022-12-29T12:04:26;1.70;;;0.73;;
51475;SDS011;37554;50.362;7.568;2022-12-29T12:06:57;1.63;;;0.80;;
51475;SDS011;37554;50.362;7.568;2022-12-29T12:09:31;2.85;;;0.88;;
51475;SDS011;37554;50.362;7.568;2022-12-29T12:12:01;2.92;;;0.95;;
51475;SDS011;37554;50.362;7.568;2022-12-29T12:14:32;3.20;;;1.00;;
51475;SDS011;37554;50.362;7.568;2022-12-29T12:17:04;5.57;;;1.00;;
51475;SDS011;37554;50.362;7.568;2022-12-29T12:22:25;2.78;;;0.90;;
51475;SDS011;37554;50.362;7.568;2022-12-29T12:27:32;2.80;;;0.80;;
51475;SDS011;37554;50.362;7.568;2022-12-29T12:30:11;2.15;;;0.93;;
51475;SDS011;37554;50.362;7.568;2022-12-29T12:35:29;2.20;;;0.80;;
51475;SDS011;37554;50.362;7.568;2022-12-29T12:46:50;2.45;;;0.88;;
51475;SDS011;37554;50.362;7.568;2022-12-29T13:00:21;1.80;;;0.75;;
51475;SDS011;37554;50.362;7.568;2022-12-29T13:08:59;3.17;;;1.20;;
51475;SDS011;37554;50.362;7.568;2022-12-29T13:19:30;3.63;;;0.80;;
51475;SDS011;37554;50.362;7.568;2022-12-29T13:22:28;2.08;;;0.93;;
51475;SDS011;37554;50.362;7.568;2022-12-29T13:25:15;2.15;;;1.08;;
51475;SDS011;37554;50.362;7.568;2022-12-29T13:27:55;1.83;;;0.55;;
51475;SDS011;37554;50.362;7.568;2022-12-29T13:36:29;4.80;;;0.90;;
51475;SDS011;37554;50.362;7.568;2022-12-29T13:41:40;3.43;;;0.93;;
51475;SDS011;37554;50.362;7.568;2022-12-29T13:44:44;3.00;;;0.90;;
51475;SDS011;37554;50.362;7.568;2022-12-29T13:47:11;1.63;;;0.80;;
51475;SDS011;37554;50.362;7.568;2022-12-29T13:49:45;2.33;;;0.65;;
51475;SDS011;37554;50.362;7.568;2022-12-29T13:52:17;3.65;;;0.88;;
51475;SDS011;37554;50.362;7.568;2022-12-29T13:57:52;1.60;;;0.57;;
51475;SDS011;37554;50.362;7.568;2022-12-29T14:00:30;2.53;;;0.80;;
51475;SDS011;37554;50.362;7.568;2022-12-29T14:05:45;3.03;;;0.85;;
51475;SDS011;37554;50.362;7.568;2022-12-29T14:08:28;2.75;;;0.77;;
51475;SDS011;37554;50.362;7.568;2022-12-29T14:10:57;2.60;;;0.82;;
51475;SDS011;37554;50.362;7.568;2022-12-29T14:13:32;2.60;;;1.00;;
51475;SDS011;37554;50.362;7.568;2022-12-29T14:16:04;2.30;;;0.60;;
51475;SDS011;37554;50.362;7.568;2022-12-29T14:18:31;2.67;;;0.90;;
51475;SDS011;37554;50.362;7.568;2022-12-29T14:20:59;2.35;;;0.60;;
51475;SDS011;37554;50.362;7.568;2022-12-29T14:23:43;3.53;;;0.90;;
51475;SDS011;37554;50.362;7.568;2022-12-29T14:28:44;3.40;;;0.70;;
51475;SDS011;37554;50.362;7.568;2022-12-29T14:33:39;2.22;;;0.70;;
51475;SDS011;37554;50.362;7.568;2022-12-29T14:38:51;2.42;;;0.80;;
51475;SDS011;37554;50.362;7.568;2022-12-29T14:41:24;2.67;;;0.60;;
51475;SDS011;37554;50.362;7.568;2022-12-29T14:44:01;2.80;;;1.00;;
51475;SDS011;37554;50.362;7.568;2022-12-29T14:46:42;1.83;;;0.60;;
51475;SDS011;37554;50.362;7.568;2022-12-29T14:49:14;3.08;;;0.75;;
51475;SDS011;37554;50.362;7.568;2022-12-29T14:51:43;2.77;;;0.77;;
51475;SDS011;37554;50.362;7.568;2022-12-29T14:57:08;2.03;;;0.60;;
51475;SDS011;37554;50.362;7.568;2022-12-29T14:59:44;2.15;;;0.60;;
51475;SDS011;37554;50.362;7.568;2022-12-29T15:02:14;2.65;;;0.65;;
51475;SDS011;37554;50.362;7.568;2022-12-29T15:04:44;2.53;;;0.73;;
51475;SDS011;37554;50.362;7.568;2022-12-29T15:07:12;1.88;;;0.70;;
51475;SDS011;37554;50.362;7.568;2022-12-29T15:09:44;1.70;;;0.70;;
51475;SDS011;37554;50.362;7.568;2022-12-29T15:12:20;2.38;;;0.80;;
51475;SDS011;37554;50.362;7.568;2022-12-29T15:15:01;3.08;;;0.60;;
51475;SDS011;37554;50.362;7.568;2022-12-29T15:17:37;3.72;;;0.73;;
51475;SDS011;37554;50.362;7.568;2022-12-29T15:22:52;2.30;;;0.50;;
51475;SDS011;37554;50.362;7.568;2022-12-29T15:25:20;2.55;;;0.90;;
51475;SDS011;37554;50.362;7.568;2022-12-29T15:27:50;2.28;;;0.80;;
51475;SDS011;37554;50.362;7.568;2022-12-29T15:30:17;2.55;;;0.63;;
51475;SDS011;37554;50.362;7.568;2022-12-29T15:32:43;2.85;;;0.93;;
51475;SDS011;37554;50.362;7.568;2022-12-29T15:37:56;4.40;;;0.50;;
51475;SDS011;37554;50.362;7.568;2022-12-29T15:40:24;2.75;;;0.63;;
51475;SDS011;37554;50.362;7.568;2022-12-29T15:45:40;1.73;;;0.50;;
51475;SDS011;37554;50.362;7.568;2022-12-29T15:48:07;2.00;;;0.63;;
51475;SDS011;37554;50.362;7.568;2022-12-29T15:50:43;1.90;;;0.60;;
51475;SDS011;37554;50.362;7.568;2022-12-29T15:53:10;1.27;;;0.40;;
51475;SDS011;37554;50.362;7.568;2022-12-29T15:55:38;5.07;;;0.73;;
51475;SDS011;37554;50.362;7.568;2022-12-29T15:58:17;3.92;;;0.75;;
51475;SDS011;37554;50.362;7.568;2022-12-29T16:00:52;1.63;;;0.50;;
51475;SDS011;37554;50.362;7.568;2022-12-29T16:03:20;2.45;;;0.73;;
51475;SDS011;37554;50.362;7.568;2022-12-29T16:06:29;3.13;;;0.85;;
51475;SDS011;37554;50.362;7.568;2022-12-29T16:08:55;4.57;;;0.70;;
51475;SDS011;37554;50.362;7.568;2022-12-29T16:11:26;3.42;;;0.80;;
51475;SDS011;37554;50.362;7.568;2022-12-29T16:13:57;2.22;;;0.80;;
51475;SDS011;37554;50.362;7.568;2022-12-29T16:16:25;1.88;;;0.70;;
51475;SDS011;37554;50.362;7.568;2022-12-29T16:18:52;2.70;;;0.77;;
51475;SDS011;37554;50.362;7.568;2022-12-29T16:21:23;3.58;;;0.95;;
51475;SDS011;37554;50.362;7.568;2022-12-29T16:23:50;1.42;;;0.65;;
51475;SDS011;37554;50.362;7.568;2022-12-29T16:26:19;7.50;;;0.77;;
51475;SDS011;37554;50.362;7.568;2022-12-29T16:28:47;4.22;;;0.65;;
51475;SDS011;37554;50.362;7.568;2022-12-29T16:31:32;2.13;;;0.80;;
51475;SDS011;37554;50.362;7.568;2022-12-29T16:33:58;3.20;;;0.90;;
51475;SDS011;37554;50.362;7.568;2022-12-29T16:36:40;1.77;;;0.55;;
51475;SDS011;37554;50.362;7.568;2022-12-29T16:39:20;2.40;;;0.80;;
51475;SDS011;37554;50.362;7.568;2022-12-29T16:41:49;1.52;;;0.60;;
51475;SDS011;37554;50.362;7.568;2022-12-29T16:49:42;3.33;;;1.02;;
51475;SDS011;37554;50.362;7.568;2022-12-29T16:54:50;4.63;;;0.80;;
51475;SDS011;37554;50.362;7.568;2022-12-29T16:57:25;3.78;;;1.08;;
51475;SDS011;37554;50.362;7.568;2022-12-29T16:59:54;5.93;;;1.05;;
51475;SDS011;37554;50.362;7.568;2022-12-29T17:02:24;3.40;;;0.98;;
51475;SDS011;37554;50.362;7.568;2022-12-29T17:04:52;1.83;;;0.80;;
51475;SDS011;37554;50.362;7.568;2022-12-29T17:07:19;3.22;;;1.10;;
51475;SDS011;37554;50.362;7.568;2022-12-29T17:09:49;2.83;;;1.00;;
51475;SDS011;37554;50.362;7.568;2022-12-29T17:12:18;3.55;;;1.08;;
51475;SDS011;37554;50.362;7.568;2022-12-29T17:17:40;2.83;;;0.90;;
51475;SDS011;37554;50.362;7.568;2022-12-29T17:20:23;3.90;;;0.98;;
51475;SDS011;37554;50.362;7.568;2022-12-29T17:22:53;3.95;;;1.00;;
51475;SDS011;37554;50.362;7.568;2022-12-29T17:25:23;2.13;;;0.90;;
51475;SDS011;37554;50.362;7.568;2022-12-29T17:27:55;3.17;;;0.90;;
51475;SDS011;37554;50.362;7.568;2022-12-29T17:30:24;4.65;;;1.15;;
51475;SDS011;37554;50.362;7.568;2022-12-29T17:32:51;3.08;;;1.17;;
51475;SDS011;37554;50.362;7.568;2022-12-29T17:35:21;3.13;;;1.30;;
51475;SDS011;37554;50.362;7.568;2022-12-29T17:37:47;3.67;;;1.13;;
51475;SDS011;37554;50.362;7.568;2022-12-29T17:40:14;2.80;;;1.20;;
51475;SDS011;37554;50.362;7.568;2022-12-29T17:42:47;3.97;;;1.40;;
51475;SDS011;37554;50.362;7.568;2022-12-29T17:45:26;4.05;;;1.13;;
51475;SDS011;37554;50.362;7.568;2022-12-29T17:47:56;2.88;;;1.23;;
51475;SDS011;37554;50.362;7.568;2022-12-29T17:50:26;3.45;;;1.60;;
51475;SDS011;37554;50.362;7.568;2022-12-29T17:52:55;3.00;;;1.17;;
51475;SDS011;37554;50.362;7.568;2022-12-29T17:55:23;4.50;;;1.52;;
51475;SDS011;37554;50.362;7.568;2022-12-29T17:57:50;4.55;;;1.75;;